Time;durP1;ratioP1;P1;durP2;ratioP2;P2;SDS_P1;SDS_P2;PMS_P1;PMS_P2;Temp;Humidity;BMP_temperature;BMP_pressure;BME280_temperature;BME280_humidity;BME280_pressure;Samples;Min_cycle;Max_cycle;Signal;HPM_P1;HPM_P2
2021/04/10 00:01:41;;;;;;;1999.90;999.90;;;16.20;99.90;;;;;;5136887;27;20224;-48
2021/04/10 00:04:10;;;;;;;1999.90;999.90;;;16.20;99.90;;;;;;5136872;27;20162;-46
2021/04/10 00:06:37;;;;;;;1999.90;999.90;;;16.10;99.90;;;;;;5136798;27;20230;-45
2021/04/10 00:09:06;;;;;;;1999.90;999.90;;;16.00;99.90;;;;;;5136509;27;20154;-46
2021/04/10 00:11:34;;;;;;;1999.90;999.90;;;15.90;99.90;;;;;;5136338;27;20210;-46
2021/04/10 00:14:06;;;;;;;1999.90;999.90;;;16.00;99.90;;;;;;5136350;27;20167;-45
2021/04/10 00:16:35;;;;;;;1999.90;999.90;;;15.90;99.90;;;;;;5136387;27;20193;-45
2021/04/10 00:19:02;;;;;;;1999.90;999.90;;;15.90;99.90;;;;;;5136017;27;20267;-49
2021/04/10 00:21:29;;;;;;;1999.90;999.90;;;16.00;99.90;;;;;;5136181;27;20238;-46
2021/04/10 00:23:56;;;;;;;1999.90;999.90;;;16.00;99.90;;;;;;5136233;27;20245;-46
2021/04/10 00:26:23;;;;;;;1999.90;999.90;;;16.00;99.90;;;;;;5136133;27;20165;-45
2021/04/10 00:28:50;;;;;;;1999.90;999.90;;;16.00;99.90;;;;;;5136332;27;20208;-46
2021/04/10 00:31:17;;;;;;;1999.90;999.90;;;15.90;99.90;;;;;;5136209;27;20186;-48
2021/04/10 00:33:44;;;;;;;1999.90;999.90;;;15.90;99.90;;;;;;5136215;27;20567;-45
2021/04/10 00:36:11;;;;;;;1999.90;999.90;;;15.70;99.90;;;;;;5136242;27;20170;-48
2021/04/10 00:38:39;;;;;;;1999.90;999.90;;;15.50;99.90;;;;;;5136242;27;20689;-48
2021/04/10 00:41:11;;;;;;;1999.90;999.90;;;15.50;99.90;;;;;;5136095;27;20163;-45
2021/04/10 00:43:38;;;;;;;1999.90;999.90;;;15.40;99.90;;;;;;5136038;27;20182;-45
2021/04/10 00:46:08;;;;;;;1999.90;999.90;;;15.30;99.90;;;;;;5135962;27;20194;-48
2021/04/10 00:48:35;;;;;;;1999.90;999.90;;;15.40;99.90;;;;;;5135821;27;20625;-48
2021/04/10 00:51:02;;;;;;;1999.90;999.90;;;15.40;99.90;;;;;;5135711;27;20198;-46
2021/04/10 00:53:31;;;;;;;1999.90;999.90;;;15.40;99.90;;;;;;5135754;27;20163;-45
2021/04/10 00:56:02;;;;;;;1999.90;999.90;;;15.50;99.90;;;;;;5135673;27;20651;-45
2021/04/10 00:58:30;;;;;;;1999.90;999.90;;;15.40;99.90;;;;;;5135666;27;20163;-45
2021/04/10 01:00:57;;;;;;;1999.90;999.90;;;15.40;99.90;;;;;;5135618;27;20288;-46
2021/04/10 01:03:24;;;;;;;1999.90;999.90;;;15.50;99.90;;;;;;5135691;27;20159;-45
2021/04/10 01:05:50;;;;;;;1999.90;999.90;;;15.50;99.90;;;;;;5135577;27;20168;-45
2021/04/10 01:08:17;;;;;;;1999.90;999.90;;;15.50;99.90;;;;;;5135615;27;20167;-46
2021/04/10 01:10:44;;;;;;;1999.90;999.90;;;15.50;99.90;;;;;;5135601;27;20183;-45
2021/04/10 01:13:42;;;;;;;1999.90;999.90;;;15.50;99.90;;;;;;5135032;27;20647;-46
2021/04/10 01:16:25;;;;;;;1999.90;999.90;;;15.60;99.90;;;;;;5135279;27;20596;-45
2021/04/10 01:19:36;;;;;;;1999.90;999.90;;;15.60;99.90;;;;;;5135264;27;20551;-50
2021/04/10 01:22:36;;;;;;;1999.90;999.90;;;15.70;99.90;;;;;;5119546;27;20189;-47
2021/04/10 01:25:10;;;;;;;1999.90;999.90;;;15.60;99.90;;;;;;5135239;27;20653;-46
2021/04/10 01:27:59;;;;;;;1999.90;999.90;;;15.50;99.90;;;;;;5135254;27;20158;-47
2021/04/10 01:30:32;;;;;;;1999.90;999.90;;;15.50;99.90;;;;;;5134870;27;20169;-45
2021/04/10 01:33:14;;;;;;;1999.90;999.90;;;15.40;99.60;;;;;;5134943;27;20178;-45
2021/04/10 01:35:50;;;;;;;1999.90;999.90;;;15.40;99.70;;;;;;5134957;27;20163;-45
2021/04/10 01:38:19;;;;;;;1999.90;999.90;;;15.30;99.90;;;;;;5135135;27;20158;-45
2021/04/10 01:40:51;;;;;;;1999.90;999.90;;;15.20;99.90;;;;;;5135031;27;20159;-44
2021/04/10 01:43:18;;;;;;;1999.90;999.90;;;15.20;99.90;;;;;;5135124;27;20169;-46
2021/04/10 01:45:47;;;;;;;1999.90;999.90;;;15.20;99.90;;;;;;5135002;27;20165;-45
2021/04/10 01:48:17;;;;;;;1999.90;999.90;;;15.20;99.90;;;;;;5134943;27;20163;-44
2021/04/10 01:50:45;;;;;;;1999.90;999.90;;;15.20;99.90;;;;;;5134626;27;20201;-44
2021/04/10 01:53:13;;;;;;;1999.90;999.90;;;15.10;99.90;;;;;;5134775;27;20182;-44
2021/04/10 01:55:41;;;;;;;1999.90;999.90;;;15.10;99.90;;;;;;5134663;27;20651;-44
2021/04/10 01:58:09;;;;;;;1999.90;999.90;;;15.00;99.90;;;;;;5134642;27;20628;-44
2021/04/10 02:00:37;;;;;;;1999.90;999.90;;;15.00;99.90;;;;;;5134598;27;20281;-45
2021/04/10 02:03:06;;;;;;;1999.90;999.90;;;14.90;99.90;;;;;;5134569;27;20524;-47
2021/04/10 02:05:34;;;;;;;1999.90;999.90;;;14.90;99.90;;;;;;5134459;27;20644;-45
2021/04/10 02:08:02;;;;;;;1999.90;999.90;;;14.90;99.90;;;;;;5134390;27;20170;-45
2021/04/10 02:10:29;;;;;;;1999.90;999.90;;;14.90;99.90;;;;;;5134451;27;20211;-45
2021/04/10 02:12:57;;;;;;;1999.90;999.90;;;14.80;99.90;;;;;;5134351;27;20259;-47
2021/04/10 02:15:24;;;;;;;1999.90;999.90;;;14.70;99.90;;;;;;5134380;27;20159;-47
2021/04/10 02:17:54;;;;;;;1999.90;999.90;;;14.70;99.90;;;;;;5134638;27;20289;-45
2021/04/10 02:20:22;;;;;;;1999.90;999.90;;;14.80;99.90;;;;;;5134561;27;20269;-46
2021/04/10 02:22:52;;;;;;;1999.90;999.90;;;14.80;99.90;;;;;;5134230;27;20170;-45
2021/04/10 02:25:21;;;;;;;1999.90;999.90;;;14.80;99.90;;;;;;5133354;27;20166;-46
2021/04/10 02:27:48;;;;;;;1999.90;999.90;;;14.80;99.90;;;;;;5134232;27;20170;-45
2021/04/10 02:30:16;;;;;;;1999.90;999.90;;;14.70;99.90;;;;;;5133857;27;20526;-46
2021/04/10 02:33:09;;;;;;;1999.90;999.90;;;14.70;99.90;;;;;;5133915;27;20660;-47
2021/04/10 02:35:58;;;;;;;1999.90;999.90;;;14.70;99.90;;;;;;5133621;27;20618;-44
2021/04/10 02:38:30;;;;;;;1999.90;999.90;;;14.70;99.90;;;;;;5133835;27;20190;-44
2021/04/10 02:41:26;;;;;;;1999.90;999.90;;;14.70;99.90;;;;;;5134178;27;20553;-43
2021/04/10 02:43:56;;;;;;;1999.90;999.90;;;14.70;99.90;;;;;;5133671;27;20182;-44
2021/04/10 02:46:26;;;;;;;1999.90;999.90;;;14.60;99.90;;;;;;5134121;27;20171;-44
2021/04/10 02:49:07;;;;;;;1999.90;999.90;;;14.60;99.90;;;;;;5134065;27;20525;-45
2021/04/10 02:51:44;;;;;;;1999.90;999.90;;;14.60;99.90;;;;;;5133879;27;20186;-45
2021/04/10 02:54:17;;;;;;;1999.90;999.90;;;14.70;99.90;;;;;;5133863;27;20158;-44
2021/04/10 02:56:50;;;;;;;1999.90;999.90;;;14.70;99.90;;;;;;5133869;27;20181;-44
2021/04/10 02:59:20;;;;;;;1999.90;999.90;;;14.70;99.90;;;;;;5133791;27;20576;-45
2021/04/10 03:01:49;;;;;;;1999.90;999.90;;;14.70;99.90;;;;;;5133860;27;20286;-44
2021/04/10 03:04:16;;;;;;;1999.90;999.90;;;14.70;99.90;;;;;;5133838;27;20158;-45
2021/04/10 03:06:43;;;;;;;1999.90;999.90;;;14.70;99.90;;;;;;5133721;27;20170;-44
2021/04/10 03:09:11;;;;;;;1999.90;999.90;;;14.70;99.90;;;;;;5133762;27;20223;-44
2021/04/10 03:11:39;;;;;;;1999.90;999.90;;;14.70;99.90;;;;;;5133643;27;20186;-44
2021/04/10 03:14:08;;;;;;;1999.90;999.90;;;14.70;99.90;;;;;;5133718;27;20249;-44
2021/04/10 03:16:35;;;;;;;1999.90;999.90;;;14.70;99.90;;;;;;5133552;27;20181;-44
2021/04/10 03:19:06;;;;;;;1999.90;999.90;;;14.70;99.90;;;;;;5133392;27;20219;-45
2021/04/10 03:21:33;;;;;;;1999.90;999.90;;;14.60;99.90;;;;;;5133679;27;20162;-46
2021/04/10 03:24:00;;;;;;;1999.90;999.90;;;14.50;99.90;;;;;;5133615;27;20208;-44
2021/04/10 03:26:27;;;;;;;1999.90;999.90;;;14.40;99.90;;;;;;5133596;27;20166;-44
2021/04/10 03:28:55;;;;;;;1999.90;999.90;;;14.40;99.90;;;;;;5133686;27;20163;-44
2021/04/10 03:31:22;;;;;;;1999.90;999.90;;;14.40;99.90;;;;;;5133397;27;20277;-45
2021/04/10 03:33:49;;;;;;;1999.90;999.90;;;14.40;99.90;;;;;;5133477;27;20626;-45
2021/04/10 03:36:17;;;;;;;1999.90;999.90;;;14.40;99.90;;;;;;5133815;27;20208;-45
2021/04/10 03:38:44;;;;;;;1999.90;999.90;;;14.50;99.90;;;;;;5137116;27;20166;-45
2021/04/10 03:41:11;;;;;;;1999.90;999.90;;;14.50;99.90;;;;;;5136920;27;20178;-44
2021/04/10 03:43:38;;;;;;;1999.90;999.90;;;14.50;99.90;;;;;;5137119;27;20167;-44
2021/04/10 03:46:04;;;;;;;1999.90;999.90;;;14.50;99.90;;;;;;5137155;27;20262;-48
2021/04/10 03:48:31;;;;;;;1999.90;999.90;;;14.60;99.90;;;;;;5137135;27;20335;-44
2021/04/10 03:50:59;;;;;;;1999.90;999.90;;;14.50;99.90;;;;;;5137200;27;20206;-46
2021/04/10 03:53:26;;;;;;;1999.90;999.90;;;14.60;99.90;;;;;;5137196;27;20170;-48
2021/04/10 03:55:53;;;;;;;1999.90;999.90;;;14.60;99.90;;;;;;5137053;27;20158;-45
2021/04/10 03:58:20;;;;;;;1999.90;999.90;;;14.60;99.90;;;;;;5136921;27;20200;-46
2021/04/10 04:00:46;;;;;;;1999.90;999.90;;;14.50;99.90;;;;;;5137013;27;20245;-45
2021/04/10 04:03:13;;;;;;;1999.90;999.90;;;14.40;99.90;;;;;;5136572;27;20563;-46
2021/04/10 04:05:40;;;;;;;1999.90;999.90;;;14.40;99.90;;;;;;5136677;27;20170;-47
2021/04/10 04:08:07;;;;;;;1999.90;999.90;;;14.30;99.90;;;;;;5136791;27;20617;-48
2021/04/10 04:10:34;;;;;;;1999.90;999.90;;;14.20;99.90;;;;;;5136599;27;20174;-46
2021/04/10 04:13:01;;;;;;;1999.90;999.90;;;14.20;99.90;;;;;;5136567;27;20174;-44
2021/04/10 04:15:28;;;;;;;1999.90;999.90;;;14.20;99.90;;;;;;5136768;27;20163;-45
2021/04/10 04:17:55;;;;;;;1999.90;999.90;;;14.10;99.90;;;;;;5136586;27;20167;-46
2021/04/10 04:20:21;;;;;;;1999.90;999.90;;;14.10;99.90;;;;;;5136634;27;20170;-47
2021/04/10 04:22:48;;;;;;;1999.90;999.90;;;14.10;99.90;;;;;;5136549;27;20185;-46
2021/04/10 04:25:15;;;;;;;1999.90;999.90;;;14.10;99.90;;;;;;5136468;27;20170;-45
2021/04/10 04:27:42;;;;;;;1999.90;999.90;;;14.00;99.90;;;;;;5136457;27;20163;-47
2021/04/10 04:30:09;;;;;;;1999.90;999.90;;;14.00;99.90;;;;;;5135081;27;20166;-45
2021/04/10 04:32:36;;;;;;;1999.90;999.90;;;14.10;99.90;;;;;;5136268;27;20680;-45
2021/04/10 04:35:03;;;;;;;1999.90;999.90;;;14.00;99.90;;;;;;5136367;27;20170;-44
2021/04/10 04:37:30;;;;;;;1999.90;999.90;;;14.00;99.90;;;;;;5136275;27;20176;-44
2021/04/10 04:39:57;;;;;;;1999.90;999.90;;;14.00;99.90;;;;;;5136362;27;20163;-45
2021/04/10 04:42:24;;;;;;;1999.90;999.90;;;13.90;99.90;;;;;;5136098;27;20177;-46
2021/04/10 04:44:51;;;;;;;1999.90;999.90;;;13.90;99.90;;;;;;5136188;27;20159;-45
2021/04/10 04:47:18;;;;;;;1999.90;999.90;;;13.90;99.90;;;;;;5135910;27;20163;-44
2021/04/10 04:49:44;;;;;;;1999.90;999.90;;;13.80;99.90;;;;;;5135293;27;20166;-43
2021/04/10 04:52:11;;;;;;;1999.90;999.90;;;13.80;99.90;;;;;;5135863;27;20568;-43
2021/04/10 04:54:38;;;;;;;1999.90;999.90;;;13.80;99.90;;;;;;5135838;27;20245;-46
2021/04/10 04:57:05;;;;;;;1999.90;999.90;;;13.70;99.90;;;;;;5135927;27;20170;-46
2021/04/10 04:59:32;;;;;;;1999.90;999.90;;;13.60;99.90;;;;;;5135905;27;20253;-45
2021/04/10 05:01:58;;;;;;;1999.90;999.90;;;13.60;99.90;;;;;;5135753;27;20249;-45
2021/04/10 05:04:25;;;;;;;1999.90;999.90;;;13.70;99.90;;;;;;5135701;27;20547;-44
2021/04/10 05:06:52;;;;;;;1999.90;999.90;;;13.70;99.90;;;;;;5135654;27;20660;-44
2021/04/10 05:09:19;;;;;;;1999.90;999.90;;;13.80;99.90;;;;;;5135570;27;20557;-43
2021/04/10 05:11:46;;;;;;;1999.90;999.90;;;13.80;99.90;;;;;;5135455;27;20198;-45
2021/04/10 05:14:12;;;;;;;1999.90;999.90;;;13.90;99.90;;;;;;5135540;27;20162;-44
2021/04/10 05:16:39;;;;;;;1999.90;999.90;;;13.80;99.90;;;;;;5135470;27;20169;-44
2021/04/10 05:19:06;;;;;;;1999.90;999.90;;;13.80;99.90;;;;;;5135155;27;20270;-44
2021/04/10 05:21:33;;;;;;;1999.90;999.90;;;13.90;99.90;;;;;;5135481;27;20162;-43
2021/04/10 05:24:00;;;;;;;1999.90;999.90;;;13.90;99.90;;;;;;5135241;27;20175;-45
2021/04/10 05:26:27;;;;;;;1999.90;999.90;;;13.90;99.90;;;;;;5135339;27;20170;-44
2021/04/10 05:28:54;;;;;;;1999.90;999.90;;;14.00;99.90;;;;;;5135266;27;20526;-44
2021/04/10 05:31:21;;;;;;;1999.90;999.90;;;14.00;99.90;;;;;;5135046;27;20278;-44
2021/04/10 05:33:47;;;;;;;1999.90;999.90;;;14.10;99.90;;;;;;5135094;27;20227;-44
2021/04/10 05:36:14;;;;;;;1999.90;999.90;;;14.10;99.90;;;;;;5135039;27;20249;-45
2021/04/10 05:38:41;;;;;;;1999.90;999.90;;;14.10;99.90;;;;;;5135093;27;20163;-46
2021/04/10 05:41:10;;;;;;;1999.90;999.90;;;14.20;99.90;;;;;;5135013;27;20163;-44
2021/04/10 05:43:37;;;;;;;1999.90;999.90;;;14.20;99.90;;;;;;5135063;27;20252;-47
2021/04/10 05:46:04;;;;;;;1999.90;999.90;;;14.40;99.90;;;;;;5135053;27;20170;-46
2021/04/10 05:48:31;;;;;;;1999.90;999.90;;;14.40;99.90;;;;;;5134730;27;20177;-48
2021/04/10 05:50:58;;;;;;;1999.90;999.90;;;14.50;99.90;;;;;;5134779;27;20190;-46
2021/04/10 05:53:27;;;;;;;1999.90;999.90;;;14.50;99.90;;;;;;5134705;27;20223;-45
2021/04/10 05:55:55;;;;;;;1999.90;999.90;;;14.50;99.90;;;;;;5134581;27;20178;-45
2021/04/10 05:58:22;;;;;;;1999.90;999.90;;;14.60;99.90;;;;;;5134691;27;20511;-45
2021/04/10 06:00:49;;;;;;;1999.90;999.90;;;14.70;99.90;;;;;;5134473;27;20205;-45
2021/04/10 06:03:16;;;;;;;1999.90;999.90;;;14.80;99.90;;;;;;5134466;27;20182;-45
2021/04/10 06:05:47;;;;;;;1999.90;999.90;;;15.00;99.90;;;;;;5134530;27;20180;-45
2021/04/10 06:08:14;;;;;;;1999.90;999.90;;;15.00;99.90;;;;;;5134382;27;20201;-45
2021/04/10 06:10:41;;;;;;;1999.90;999.90;;;15.10;99.90;;;;;;5134266;27;20190;-45
2021/04/10 06:13:08;;;;;;;1999.90;999.90;;;15.10;99.90;;;;;;5134477;27;20215;-45
2021/04/10 06:15:35;;;;;;;1999.90;999.90;;;15.30;99.90;;;;;;5134373;27;20158;-45
2021/04/10 06:18:02;;;;;;;1999.90;999.90;;;15.40;99.90;;;;;;5134003;27;20170;-48
2021/04/10 06:20:29;;;;;;;1999.90;999.90;;;15.60;99.90;;;;;;5134377;27;20163;-44
2021/04/10 06:22:56;;;;;;;1999.90;999.90;;;15.70;99.90;;;;;;5134244;27;20166;-45
2021/04/10 06:25:23;;;;;;;1999.90;999.90;;;15.80;99.90;;;;;;5134068;27;20179;-45
2021/04/10 06:27:49;;;;;;;1999.90;999.90;;;15.90;99.90;;;;;;5134218;27;20242;-45
2021/04/10 06:30:16;;;;;;;1999.90;999.90;;;15.90;99.90;;;;;;5134008;27;20175;-45
2021/04/10 06:32:43;;;;;;;1999.90;999.90;;;15.90;99.90;;;;;;5134117;27;20227;-45
2021/04/10 06:35:11;;;;;;;1999.90;999.90;;;15.90;99.90;;;;;;5134201;27;20179;-45
2021/04/10 06:37:37;;;;;;;1999.90;999.90;;;15.90;99.90;;;;;;5134209;27;20254;-44
2021/04/10 06:40:07;;;;;;;1999.90;999.90;;;15.90;99.90;;;;;;5133961;27;20170;-46
2021/04/10 06:42:34;;;;;;;1999.90;999.90;;;16.00;99.90;;;;;;5133775;27;20166;-47
2021/04/10 06:45:01;;;;;;;1999.90;999.90;;;16.10;99.90;;;;;;5134061;27;20167;-48
2021/04/10 06:47:32;;;;;;;1999.90;999.90;;;16.20;99.90;;;;;;5133965;27;20162;-47
2021/04/10 06:49:59;;;;;;;1999.90;999.90;;;16.30;99.80;;;;;;5134063;27;20155;-50
2021/04/10 06:52:27;;;;;;;1999.90;999.90;;;16.30;99.60;;;;;;5133589;27;20743;-46
2021/04/10 06:55:03;;;;;;;1999.90;999.90;;;16.40;99.60;;;;;;5133905;27;20167;-48
2021/04/10 06:57:41;;;;;;;1999.90;999.90;;;16.50;99.40;;;;;;5133946;27;20151;-50
2021/04/10 07:00:12;;;;;;;1999.90;999.90;;;16.80;98.90;;;;;;5133748;27;20521;-46
2021/04/10 07:02:41;;;;;;;1999.90;999.90;;;17.00;98.60;;;;;;5133633;27;20194;-47
2021/04/10 07:05:08;;;;;;;1999.90;999.90;;;17.20;98.60;;;;;;5133741;27;20177;-50
2021/04/10 07:07:35;;;;;;;1999.90;999.90;;;17.40;97.60;;;;;;5133792;27;20236;-46
2021/04/10 07:10:05;;;;;;;1999.90;999.90;;;17.50;97.20;;;;;;5133624;27;20658;-47
2021/04/10 07:12:31;;;;;;;1999.90;999.90;;;17.70;97.10;;;;;;5136500;27;20237;-48
2021/04/10 07:14:58;;;;;;;1999.90;999.90;;;17.90;96.70;;;;;;5137844;27;20159;-47
2021/04/10 07:17:25;;;;;;;1999.90;999.90;;;18.10;96.10;;;;;;5137683;27;20171;-48
2021/04/10 07:19:52;;;;;;;1999.90;999.90;;;18.20;96.40;;;;;;5137564;27;20692;-47
2021/04/10 07:22:19;;;;;;;1999.90;999.90;;;18.30;95.50;;;;;;5137714;27;20167;-49
2021/04/10 07:24:47;;;;;;;1999.90;999.90;;;18.40;95.50;;;;;;5137572;27;20643;-48
2021/04/10 07:27:22;;;;;;;1999.90;999.90;;;18.50;94.90;;;;;;5137405;27;20174;-51
2021/04/10 07:29:58;;;;;;;1999.90;999.90;;;18.70;94.10;;;;;;5137435;27;20147;-47
2021/04/10 07:32:34;;;;;;;1999.90;999.90;;;18.90;93.80;;;;;;5137227;27;20327;-46
2021/04/10 07:35:12;;;;;;;1999.90;999.90;;;19.10;93.60;;;;;;5137129;27;20201;-46
2021/04/10 07:37:50;;;;;;;1999.90;999.90;;;19.40;93.30;;;;;;5137196;27;20173;-47
2021/04/10 07:40:20;;;;;;;1999.90;999.90;;;19.60;92.20;;;;;;5137082;27;20627;-48
2021/04/10 07:42:48;;;;;;;1999.90;999.90;;;19.80;91.20;;;;;;5137161;27;20154;-45
2021/04/10 07:45:28;;;;;;;1999.90;999.90;;;20.00;90.00;;;;;;5137153;27;20170;-46
2021/04/10 07:48:05;;;;;;;1999.90;999.90;;;20.20;89.20;;;;;;5136741;27;20165;-46
2021/04/10 07:50:33;;;;;;;1999.90;999.90;;;20.40;86.30;;;;;;5136939;27;20171;-46
2021/04/10 07:53:20;;;;;;;1999.90;999.90;;;20.50;87.40;;;;;;5136689;27;20171;-46
2021/04/10 07:55:48;;;;;;;1999.90;999.90;;;20.70;85.10;;;;;;5136791;27;20171;-49
2021/04/10 07:58:28;;;;;;;1999.90;999.90;;;21.00;84.60;;;;;;5136784;27;20238;-46
2021/04/10 08:00:58;;;;;;;1999.90;999.90;;;21.30;82.70;;;;;;5136374;27;20249;-45
2021/04/10 08:03:39;;;;;;;1999.90;999.90;;;21.80;80.60;;;;;;5136390;27;20174;-46
2021/04/10 08:06:05;;;;;;;1999.90;999.90;;;22.40;78.30;;;;;;5136637;27;20249;-46
2021/04/10 08:08:47;;;;;;;1999.90;999.90;;;23.00;75.00;;;;;;5136492;27;20250;-46
2021/04/10 08:11:14;;;;;;;1999.90;999.90;;;23.50;71.30;;;;;;5136452;27;20289;-46
2021/04/10 08:13:58;;;;;;;1999.90;999.90;;;23.70;70.00;;;;;;5136434;27;20169;-46
2021/04/10 08:16:26;;;;;;;1999.90;999.90;;;23.90;67.50;;;;;;5136366;27;20532;-46
2021/04/10 08:18:57;;;;;;;1999.90;999.90;;;24.00;66.70;;;;;;5135934;27;20650;-46
2021/04/10 08:21:33;;;;;;;1999.90;999.90;;;24.00;65.90;;;;;;5136228;27;20169;-45
2021/04/10 08:24:24;;;;;;;1999.90;999.90;;;24.10;66.60;;;;;;5134589;27;20166;-49
2021/04/10 08:26:56;;;;;;;1999.90;999.90;;;24.30;64.90;;;;;;5135889;27;20177;-47
2021/04/10 08:29:23;;;;;;;1999.90;999.90;;;24.20;66.00;;;;;;5136070;27;20162;-46
2021/04/10 08:31:51;;;;;;;1999.90;999.90;;;24.90;63.80;;;;;;5136008;27;20209;-47
2021/04/10 08:34:18;;;;;;;1999.90;999.90;;;25.30;61.70;;;;;;5135939;27;20632;-47
2021/04/10 08:36:50;;;;;;;1999.90;999.90;;;25.10;61.00;;;;;;5135819;27;20223;-48
2021/04/10 08:39:20;;;;;;;1999.90;999.90;;;25.20;60.70;;;;;;5135822;27;20154;-46
2021/04/10 08:41:48;;;;;;;1999.90;999.90;;;24.90;62.50;;;;;;5135648;27;20177;-49
2021/04/10 08:44:21;;;;;;;1999.90;999.90;;;25.50;61.30;;;;;;5135608;27;20170;-48
2021/04/10 08:46:49;;;;;;;1999.90;999.90;;;25.60;60.60;;;;;;5135787;27;20163;-46
2021/04/10 08:49:19;;;;;;;1999.90;999.90;;;25.80;58.90;;;;;;5135600;27;20155;-46
2021/04/10 08:51:48;;;;;;;1999.90;999.90;;;26.20;57.40;;;;;;5134248;27;20286;-46
2021/04/10 08:54:17;;;;;;;1999.90;999.90;;;26.30;56.20;;;;;;5135295;27;20166;-50
2021/04/10 08:56:50;;;;;;;1999.90;999.90;;;26.60;55.80;;;;;;5135146;27;20194;-48
2021/04/10 08:59:19;;;;;;;1999.90;999.90;;;27.00;54.30;;;;;;5135340;27;20154;-49
2021/04/10 09:02:07;;;;;;;1999.90;999.90;;;27.60;52.10;;;;;;5135283;27;20254;-51
2021/04/10 09:04:53;;;;;;;1999.90;999.90;;;27.90;51.50;;;;;;5135322;27;20616;-50
2021/04/10 09:07:20;;;;;;;1999.90;999.90;;;28.10;50.90;;;;;;5135407;27;20190;-47
2021/04/10 09:09:48;;;;;;;1999.90;999.90;;;28.50;49.40;;;;;;5135235;27;20649;-46
2021/04/10 09:12:24;;;;;;;1999.90;999.90;;;28.60;48.20;;;;;;5135031;27;20655;-47
2021/04/10 09:14:51;;;;;;;1999.90;999.90;;;28.90;47.00;;;;;;5135310;27;20153;-47
2021/04/10 09:17:18;;;;;;;1999.90;999.90;;;29.00;46.50;;;;;;5135204;27;20524;-47
2021/04/10 09:19:46;;;;;;;1999.90;999.90;;;29.30;45.80;;;;;;5134694;27;20210;-48
2021/04/10 09:22:18;;;;;;;1999.90;999.90;;;29.30;46.40;;;;;;5134729;27;20185;-47
2021/04/10 09:24:47;;;;;;;1999.90;999.90;;;29.50;45.50;;;;;;5135037;27;20181;-48
2021/04/10 09:27:24;;;;;;;1999.90;999.90;;;29.90;45.00;;;;;;5134727;27;20170;-47
2021/04/10 09:30:35;;;;;;;1999.90;999.90;;;30.00;44.90;;;;;;5134852;27;20254;-46
2021/04/10 09:33:21;;;;;;;1999.90;999.90;;;30.10;44.10;;;;;;5127928;27;20278;-50
2021/04/10 09:35:48;;;;;;;1999.90;999.90;;;30.40;42.90;;;;;;5134263;27;20245;-47
2021/04/10 09:38:37;;;;;;;1999.90;999.90;;;30.00;43.40;;;;;;5133268;27;20202;-47
2021/04/10 09:41:04;;;;;;;1999.90;999.90;;;30.40;43.60;;;;;;5134588;27;20155;-46
2021/04/10 09:43:32;;;;;;;1999.90;999.90;;;30.30;42.90;;;;;;5134581;27;20173;-48
2021/04/10 09:45:58;;;;;;;1999.90;999.90;;;30.50;43.30;;;;;;5134456;27;20213;-46
2021/04/10 09:48:30;;;;;;;1999.90;999.90;;;30.80;42.60;;;;;;5134514;27;20163;-47
2021/04/10 09:50:57;;;;;;;1999.90;999.90;;;30.80;42.30;;;;;;5134448;27;20555;-48
2021/04/10 09:53:26;;;;;;;1999.90;999.90;;;30.70;42.40;;;;;;5134418;27;20285;-47
2021/04/10 09:56:00;;;;;;;1999.90;999.90;;;30.70;41.80;;;;;;5134220;27;20589;-45
2021/04/10 09:58:34;;;;;;;1999.90;999.90;;;31.00;41.90;;;;;;5134416;27;20165;-51
2021/04/10 10:01:08;;;;;;;1999.90;999.90;;;30.80;42.30;;;;;;5134234;27;20199;-45
2021/04/10 10:03:35;;;;;;;1999.90;999.90;;;30.70;42.00;;;;;;5134208;27;20220;-46
2021/04/10 10:06:03;;;;;;;1999.90;999.90;;;30.20;42.40;;;;;;5134064;27;20279;-48
2021/04/10 10:08:34;;;;;;;1999.90;999.90;;;30.30;41.50;;;;;;5134207;27;20201;-46
2021/04/10 10:11:07;;;;;;;1999.90;999.90;;;30.60;41.80;;;;;;5133687;27;20550;-45
2021/04/10 10:13:35;;;;;;;1999.90;999.90;;;30.70;40.90;;;;;;5133900;27;20167;-47
2021/04/10 10:16:02;;;;;;;1999.90;999.90;;;30.40;40.90;;;;;;5133681;27;20261;-46
2021/04/10 10:18:33;;;;;;;1999.90;999.90;;;30.90;41.30;;;;;;5133876;27;20202;-51
2021/04/10 10:21:20;;;;;;;1999.90;999.90;;;31.30;39.60;;;;;;5134090;27;20299;-48
2021/04/10 10:24:00;;;;;;;1999.90;999.90;;;31.20;39.30;;;;;;5134075;27;20223;-47
2021/04/10 10:26:42;;;;;;;1999.90;999.90;;;30.90;39.50;;;;;;5133531;27;20773;-49
2021/04/10 10:29:11;;;;;;;1999.90;999.90;;;31.10;38.30;;;;;;5133628;27;20161;-48
2021/04/10 10:31:46;;;;;;;1999.90;999.90;;;30.90;38.00;;;;;;5133477;27;20647;-46
2021/04/10 10:34:17;;;;;;;1999.90;999.90;;;31.20;37.70;;;;;;5133377;27;20163;-47
2021/04/10 10:36:45;;;;;;;1999.90;999.90;;;31.00;37.10;;;;;;5133566;27;20638;-48
2021/04/10 10:39:31;;;;;;;1999.90;999.90;;;31.10;37.40;;;;;;5133562;27;20249;-47
2021/04/10 10:42:00;;;;;;;1999.90;999.90;;;31.50;36.50;;;;;;5133714;27;20613;-49
2021/04/10 10:44:27;;;;;;;1999.90;999.90;;;31.60;34.70;;;;;;5133441;27;20228;-46
2021/04/10 10:47:02;;;;;;;1999.90;999.90;;;31.80;33.90;;;;;;5132710;27;20181;-46
2021/04/10 10:49:29;;;;;;;1999.90;999.90;;;32.00;33.10;;;;;;5133509;27;20170;-45
2021/04/10 10:51:56;;;;;;;1999.90;999.90;;;32.50;32.00;;;;;;5133319;27;20206;-46
2021/04/10 10:54:37;;;;;;;1999.90;999.90;;;32.50;32.70;;;;;;5133399;27;20530;-49
2021/04/10 10:57:12;;;;;;;1999.90;999.90;;;32.50;31.80;;;;;;5133341;27;20689;-46
2021/04/10 10:59:39;;;;;;;1999.90;999.90;;;32.50;32.40;;;;;;5133399;27;20199;-46
2021/04/10 11:02:09;;;;;;;1999.90;999.90;;;32.40;33.40;;;;;;5133411;27;20205;-46
2021/04/10 11:04:37;;;;;;;1999.90;999.90;;;32.20;33.50;;;;;;5133269;27;20167;-47
2021/04/10 11:07:06;;;;;;;1999.90;999.90;;;31.60;34.60;;;;;;5132712;28;20625;-45
2021/04/10 11:09:39;;;;;;;1999.90;999.90;;;31.50;34.60;;;;;;5133366;27;20257;-46
2021/04/10 11:12:12;;;;;;;1999.90;999.90;;;31.40;33.50;;;;;;5133220;27;20194;-50
2021/04/10 11:14:42;;;;;;;1999.90;999.90;;;31.70;33.30;;;;;;5132254;28;20174;-46
2021/04/10 11:17:10;;;;;;;1999.90;999.90;;;31.90;32.30;;;;;;5133355;27;20174;-46
2021/04/10 11:19:41;;;;;;;1999.90;999.90;;;32.10;33.10;;;;;;5133141;27;20232;-48
2021/04/10 11:22:14;;;;;;;1999.90;999.90;;;32.30;32.70;;;;;;5133389;27;20162;-49
2021/04/10 11:24:51;;;;;;;1999.90;999.90;;;32.50;31.80;;;;;;5133251;27;20167;-49
2021/04/10 11:27:25;;;;;;;1999.90;999.90;;;32.40;32.20;;;;;;5133495;27;20550;-48
2021/04/10 11:30:08;;;;;;;1999.90;999.90;;;32.40;32.30;;;;;;5133569;27;20261;-47
2021/04/10 11:32:43;;;;;;;1999.90;999.90;;;32.80;31.60;;;;;;5133516;27;20193;-53
2021/04/10 11:35:16;;;;;;;1999.90;999.90;;;32.90;30.60;;;;;;5133870;27;20207;-51
2021/04/10 11:37:49;;;;;;;1999.90;999.90;;;33.00;30.90;;;;;;5133620;27;20158;-52
2021/04/10 11:40:25;;;;;;;1999.90;999.90;;;32.80;30.40;;;;;;5133538;27;20601;-47
2021/04/10 11:42:54;;;;;;;1999.90;999.90;;;32.80;30.40;;;;;;5133223;27;20603;-51
2021/04/10 11:45:25;;;;;;;1999.90;999.90;;;32.80;31.10;;;;;;5132847;27;20178;-48
2021/04/10 11:48:10;;;;;;;1999.90;999.90;;;32.70;31.40;;;;;;5133107;27;20173;-43
2021/04/10 11:50:45;;;;;;;1999.90;999.90;;;32.90;30.90;;;;;;5132819;27;20162;-47
2021/04/10 11:53:26;;;;;;;1999.90;999.90;;;33.10;31.30;;;;;;5132895;27;20174;-52
2021/04/10 11:55:55;;;;;;;1999.90;999.90;;;32.80;31.20;;;;;;5132707;27;20169;-47
2021/04/10 11:58:36;;;;;;;1999.90;999.90;;;32.80;31.60;;;;;;5135170;27;20228;-48
2021/04/10 12:01:12;;;;;;;1999.90;999.90;;;32.60;31.40;;;;;;5136504;27;20593;-44
2021/04/10 12:03:55;;;;;;;1999.90;999.90;;;32.80;31.50;;;;;;5136379;27;20266;-47
2021/04/10 12:06:37;;;;;;;1999.90;999.90;;;32.80;30.60;;;;;;5136432;27;20158;-50
2021/04/10 12:09:06;;;;;;;1999.90;999.90;;;32.60;30.90;;;;;;5136387;27;20692;-46
2021/04/10 12:11:38;;;;;;;1999.90;999.90;;;32.70;30.60;;;;;;5136107;27;20209;-52
2021/04/10 12:14:06;;;;;;;1999.90;999.90;;;32.90;30.10;;;;;;5136432;27;20242;-48
2021/04/10 12:16:35;;;;;;;1999.90;999.90;;;33.00;29.90;;;;;;5136277;27;20268;-52